Time;durP1;ratioP1;P1;durP2;ratioP2;P2;SDS_P1;SDS_P2;PMS_P1;PMS_P2;Temp;Humidity;BMP_temperature;BMP_pressure;BME280_temperature;BME280_humidity;BME280_pressure;Samples;Min_cycle;Max_cycle;Signal;HPM_P1;HPM_P2
2022/05/17 00:00:39;;;;;;;5.93;2.73;;;;;;;13.08;100.00;101438.09;4967213;28;20369;-73
2022/05/17 00:03:04;;;;;;;7.07;2.47;;;;;;;13.13;100.00;101441.13;4933845;28;20043;-73
2022/05/17 00:05:30;;;;;;;4.20;2.50;;;;;;;13.10;100.00;101461.03;4969980;28;20038;-73
2022/05/17 00:07:56;;;;;;;7.15;3.22;;;;;;;12.97;100.00;101474.06;4970254;28;20034;-73
2022/05/17 00:10:23;;;;;;;4.00;2.58;;;;;;;13.13;100.00;101493.91;4970977;28;20057;-73
2022/05/17 00:12:49;;;;;;;;;;;;;;;13.01;100.00;101486.13;4962688;28;20031;-73
2022/05/17 00:15:14;;;;;;;;;;;;;;;12.95;100.00;101494.00;4971687;28;20747;-73
2022/05/17 00:17:40;;;;;;;8.07;3.25;;;;;;;12.91;100.00;101500.69;4970344;28;19917;-73
2022/05/17 00:20:06;;;;;;;8.57;2.78;;;;;;;12.87;100.00;101500.13;4953027;28;20023;-73
2022/05/17 00:22:32;;;;;;;6.15;2.72;;;;;;;12.91;100.00;101509.56;4937286;28;20088;-73
2022/05/17 00:24:58;;;;;;;11.55;3.25;;;;;;;12.59;100.00;101461.97;4971244;28;20030;-73
2022/05/17 00:27:23;;;;;;;9.20;3.57;;;;;;;12.56;100.00;101460.44;4953591;28;20030;-76
2022/05/17 00:29:50;;;;;;;5.55;3.42;;;;;;;12.56;100.00;101447.06;4953152;28;20100;-73
2022/05/17 00:32:15;;;;;;;6.63;3.58;;;;;;;12.70;100.00;101477.78;4970560;28;20030;-73
2022/05/17 00:34:40;;;;;;;6.17;3.80;;;;;;;12.65;100.00;101486.28;4970686;28;20031;-73
2022/05/17 00:37:06;;;;;;;11.03;4.90;;;;;;;12.70;100.00;101493.00;4937263;28;20037;-73
2022/05/17 00:39:32;;;;;;;6.20;3.17;;;;;;;12.67;100.00;101502.22;4953142;28;20043;-73
2022/05/17 00:41:58;;;;;;;8.52;3.00;;;;;;;12.66;100.00;101512.06;4970043;28;20030;-73
2022/05/17 00:47:25;;;;;;;10.00;4.70;;;;;;;12.46;100.00;101494.53;4949892;29;20035;-73
2022/05/17 00:50:01;;;;;;;5.72;3.88;;;;;;;12.53;100.00;101508.16;4968810;28;20045;-72
2022/05/17 00:52:36;;;;;;;11.50;3.72;;;;;;;12.54;100.00;101496.41;4970095;28;20035;-73
2022/05/17 00:55:10;;;;;;;8.90;3.38;;;;;;;12.61;100.00;101500.16;4934465;29;20500;-73
2022/05/17 00:57:44;;;;;;;8.10;3.67;;;;;;;12.59;100.00;101494.09;4952701;28;20042;-73
2022/05/17 01:00:13;;;;;;;16.52;6.15;;;;;;;12.40;100.00;101487.13;4952415;28;20044;-73
2022/05/17 01:02:41;;;;;;;5.18;3.63;;;;;;;12.40;100.00;101503.19;4969734;28;20034;-74
2022/05/17 01:05:08;;;;;;;7.40;4.30;;;;;;;12.24;100.00;101493.19;4970163;28;20058;-73
2022/05/17 01:07:40;;;;;;;7.93;4.10;;;;;;;12.24;100.00;101488.69;4969895;28;20033;-73
2022/05/17 01:10:06;;;;;;;6.95;3.90;;;;;;;12.33;100.00;101489.56;4969717;28;20113;-74
2022/05/17 01:12:35;;;;;;;7.55;4.10;;;;;;;12.42;100.00;101491.31;4951737;28;20567;-73
2022/05/17 01:15:01;;;;;;;8.90;4.53;;;;;;;12.46;100.00;101497.22;4936850;28;20126;-73
2022/05/17 01:17:33;;;;;;;8.85;4.15;;;;;;;12.43;100.00;101509.09;4969911;28;20022;-74
2022/05/17 01:20:01;;;;;;;9.02;4.18;;;;;;;12.40;100.00;101497.81;4952077;28;20035;-73
2022/05/17 01:22:26;;;;;;;10.23;3.88;;;;;;;12.33;100.00;101504.81;4969373;28;20027;-73
2022/05/17 01:24:52;;;;;;;10.00;4.32;;;;;;;12.28;100.00;101505.28;4936126;28;20045;-73
2022/05/17 01:27:38;;;;;;;11.15;4.10;;;;;;;12.30;100.00;101500.59;4956070;28;20122;-73
2022/05/17 01:30:05;;;;;;;13.20;4.10;;;;;;;12.23;100.00;101491.50;4953479;28;20038;-72
2022/05/17 01:32:30;;;;;;;11.15;4.75;;;;;;;12.24;100.00;101487.81;4936117;28;20031;-72
2022/05/17 01:34:56;;;;;;;8.80;4.90;;;;;;;12.18;100.00;101481.28;4969374;28;20038;-72
2022/05/17 01:37:21;;;;;;;13.00;5.07;;;;;;;12.11;100.00;101485.56;4933035;29;20038;-72
2022/05/17 01:39:47;;;;;;;15.03;6.30;;;;;;;12.08;100.00;101472.50;4950199;28;20544;-72
2022/05/17 01:42:15;;;;;;;16.25;5.70;;;;;;;12.01;100.00;101469.59;4935816;28;20027;-72
2022/05/17 01:44:43;;;;;;;25.90;6.80;;;;;;;11.96;100.00;101469.22;4951907;28;20083;-72
2022/05/17 01:47:10;;;;;;;12.77;4.93;;;;;;;11.88;100.00;101462.94;4963885;28;20476;-72
2022/05/17 01:49:35;;;;;;;10.23;4.60;;;;;;;11.82;100.00;101453.66;4951526;28;20279;-72
2022/05/17 01:52:00;;;;;;;12.30;5.03;;;;;;;11.82;100.00;101449.16;4944425;28;20025;-72
2022/05/17 01:54:26;;;;;;;11.57;4.87;;;;;;;11.71;100.00;101440.53;4969083;28;20065;-72
2022/05/17 01:56:51;;;;;;;8.87;4.17;;;;;;;11.65;100.00;101433.09;4944522;28;20030;-72
2022/05/17 01:59:17;;;;;;;16.58;4.93;;;;;;;11.62;100.00;101434.25;4968622;28;20034;-72
2022/05/17 02:01:44;;;;;;;15.00;6.10;;;;;;;11.51;100.00;101429.13;4950519;28;20484;-71
2022/05/17 02:04:10;;;;;;;8.85;5.10;;;;;;;11.43;100.00;101431.72;4951521;28;20039;-73
2022/05/17 02:06:35;;;;;;;12.93;4.53;;;;;;;11.33;100.00;101427.28;4968740;28;20027;-74
2022/05/17 02:09:01;;;;;;;10.20;4.57;;;;;;;11.37;100.00;101428.66;4951251;28;20062;-73
2022/05/17 02:11:26;;;;;;;10.73;3.87;;;;;;;11.35;100.00;101435.13;4967647;28;20042;-74
2022/05/17 02:13:51;;;;;;;9.27;5.27;;;;;;;11.38;100.00;101430.34;4966619;28;20467;-74
2022/05/17 02:16:17;;;;;;;10.60;4.37;;;;;;;11.38;100.00;101427.66;4968644;28;20061;-73
2022/05/17 02:18:42;;;;;;;14.83;4.90;;;;;;;11.39;100.00;101428.50;4968188;28;20089;-74
2022/05/17 02:21:08;;;;;;;12.05;4.57;;;;;;;11.38;100.00;101427.66;4939827;29;20026;-74
2022/05/17 02:23:33;;;;;;;14.93;4.88;;;;;;;11.33;100.00;101416.59;4943399;29;20047;-74
2022/05/17 02:25:59;;;;;;;14.17;5.70;;;;;;;11.34;100.00;101415.59;4968320;28;20046;-74
2022/05/17 02:28:24;;;;;;;9.83;4.37;;;;;;;11.30;100.00;101402.69;4967569;28;20038;-74
2022/05/17 02:30:50;;;;;;;11.10;4.20;;;;;;;11.24;100.00;101397.91;4949687;28;20624;-74
2022/05/17 02:33:16;;;;;;;17.35;4.82;;;;;;;11.25;100.00;101399.63;4949536;28;20053;-74
2022/05/17 02:35:42;;;;;;;9.77;4.30;;;;;;;11.23;100.00;101391.75;4950451;28;20058;-74
2022/05/17 02:38:08;;;;;;;12.75;4.20;;;;;;;11.24;100.00;101393.44;4966952;28;20034;-74
2022/05/17 02:40:34;;;;;;;9.43;3.65;;;;;;;11.13;100.00;101380.28;4968282;28;20030;-74
2022/05/17 02:43:00;;;;;;;11.95;4.03;;;;;;;11.18;100.00;101389.53;4966757;28;20045;-74
2022/05/17 02:45:26;;;;;;;11.95;4.85;;;;;;;10.89;100.00;101389.72;4937973;29;20067;-75
2022/05/17 02:47:52;;;;;;;7.97;3.33;;;;;;;10.84;100.00;101401.81;4935412;28;20085;-74
2022/05/17 02:50:18;;;;;;;8.43;3.75;;;;;;;10.77;100.00;101412.28;4934389;28;20483;-75
2022/05/17 02:52:43;;;;;;;17.33;4.63;;;;;;;10.75;100.00;101407.06;4950584;28;20044;-74
2022/05/17 02:55:09;;;;;;;12.10;3.37;;;;;;;10.92;100.00;101409.94;4950963;28;20030;-74
2022/05/17 02:57:36;;;;;;;7.47;3.45;;;;;;;10.97;100.00;101415.66;4943814;28;20033;-74
2022/05/17 03:00:06;;;;;;;12.05;3.63;;;;;;;11.02;100.00;101425.91;4935816;28;20395;-74
2022/05/17 03:02:31;;;;;;;10.38;3.80;;;;;;;10.90;100.00;101434.13;4950037;28;20042;-74
2022/05/17 03:04:57;;;;;;;7.10;4.20;;;;;;;10.97;100.00;101421.00;4950766;28;20026;-75
2022/05/17 03:07:22;;;;;;;18.90;6.10;;;;;;;11.07;100.00;101439.66;4950592;28;20038;-75
2022/05/17 03:09:47;;;;;;;10.17;4.17;;;;;;;11.11;100.00;101451.75;4967559;28;20031;-75
2022/05/17 03:12:13;;;;;;;5.77;3.47;;;;;;;11.25;100.00;101456.59;4945576;29;20023;-75
2022/05/17 03:14:38;;;;;;;8.90;4.83;;;;;;;11.25;100.00;101467.28;4963577;28;21001;-75
2022/05/17 03:17:16;;;;;;;10.63;4.70;;;;;;;11.17;100.00;101460.00;4950200;28;20329;-75
2022/05/17 03:19:42;;;;;;;9.23;5.03;;;;;;;11.16;100.00;101470.84;4966640;28;20544;-73
2022/05/17 03:22:08;;;;;;;11.00;4.72;;;;;;;11.12;100.00;101474.78;4949655;28;20440;-74
2022/05/17 03:24:34;;;;;;;11.40;5.82;;;;;;;11.14;100.00;101481.69;4950204;28;20045;-74
2022/05/17 03:27:00;;;;;;;13.38;5.00;;;;;;;11.07;100.00;101482.41;4951458;28;20023;-74
2022/05/17 03:29:27;;;;;;;10.60;4.82;;;;;;;11.00;100.00;101476.81;4950029;28;20034;-74
2022/05/17 03:31:52;;;;;;;;;;;;;;;11.08;100.00;101484.13;4934077;28;20033;-74
2022/05/17 03:34:18;;;;;;;;;;;;;;;11.09;100.00;101488.47;4950403;28;19914;-74
2022/05/17 03:36:43;;;;;;;12.25;6.07;;;;;;;11.02;100.00;101482.03;4965319;28;19913;-74
2022/05/17 03:39:09;;;;;;;9.37;4.80;;;;;;;10.99;100.00;101480.50;4947829;28;20046;-74
2022/05/17 03:41:35;;;;;;;10.20;6.55;;;;;;;11.01;100.00;101477.69;4940853;28;20081;-74
2022/05/17 03:44:00;;;;;;;7.13;4.67;;;;;;;11.08;100.00;101486.78;4967155;28;20550;-74
2022/05/17 03:46:26;;;;;;;11.50;5.63;;;;;;;11.09;100.00;101486.63;4967147;28;20030;-74
2022/05/17 03:48:51;;;;;;;12.00;6.07;;;;;;;11.10;100.00;101491.00;4949841;28;20034;-74
2022/05/17 03:51:18;;;;;;;12.77;5.73;;;;;;;11.07;100.00;101496.63;4941879;28;20097;-74
2022/05/17 03:53:45;;;;;;;11.23;5.05;;;;;;;11.07;100.00;101485.09;4967011;28;20516;-74
2022/05/17 03:56:10;;;;;;;;;;;;;;;11.17;100.00;101493.91;4949320;28;20027;-74
2022/05/17 03:58:36;;;;;;;;;;;;;;;11.21;100.00;101497.97;4965836;28;19914;-74
2022/05/17 04:01:02;;;;;;;9.23;5.90;;;;;;;11.16;100.00;101493.06;4965336;28;20379;-75
2022/05/17 04:03:27;;;;;;;13.13;5.28;;;;;;;11.19;100.00;101491.91;4966910;28;20045;-74
2022/05/17 04:05:52;;;;;;;16.67;6.30;;;;;;;11.14;100.00;101483.50;4949617;28;20417;-74
2022/05/17 04:08:18;;;;;;;16.93;5.80;;;;;;;11.22;100.00;101488.97;4966715;28;20539;-74
2022/05/17 04:10:43;;;;;;;10.20;6.13;;;;;;;11.27;100.00;101493.88;4965202;28;20181;-74
2022/05/17 04:13:09;;;;;;;14.55;5.97;;;;;;;11.18;100.00;101496.44;4967154;28;20856;-74
2022/05/17 04:15:35;;;;;;;23.43;7.63;;;;;;;11.18;100.00;101491.09;4965116;28;20030;-73
2022/05/17 04:18:00;;;;;;;13.13;5.90;;;;;;;11.27;100.00;101492.03;4966884;28;20041;-74
2022/05/17 04:20:26;;;;;;;9.60;5.70;;;;;;;11.34;100.00;101487.78;4949453;28;20030;-74
2022/05/17 04:22:54;;;;;;;15.50;7.10;;;;;;;11.34;100.00;101486.94;4941891;28;20039;-75
2022/05/17 04:25:22;;;;;;;11.30;6.07;;;;;;;11.39;100.00;101493.50;4933620;28;20037;-74
2022/05/17 04:27:49;;;;;;;12.10;5.82;;;;;;;11.43;100.00;101491.38;4966918;28;20105;-75
2022/05/17 04:30:16;;;;;;;16.02;6.57;;;;;;;11.41;100.00;101496.03;4949471;28;20070;-75
2022/05/17 04:32:46;;;;;;;14.30;6.72;;;;;;;11.40;100.00;101494.34;4966453;28;20060;-75
2022/05/17 04:35:13;;;;;;;13.00;6.07;;;;;;;11.34;100.00;101506.47;4949174;28;20031;-75
2022/05/17 04:37:39;;;;;;;19.77;6.43;;;;;;;11.41;100.00;101512.91;4949256;28;20031;-75
2022/05/17 04:40:08;;;;;;;13.25;6.60;;;;;;;11.43;100.00;101519.97;4964295;28;20762;-74
2022/05/17 04:42:38;;;;;;;16.42;6.65;;;;;;;11.44;100.00;101506.44;4965865;28;20054;-75
2022/05/17 04:45:06;;;;;;;13.10;6.82;;;;;;;11.48;100.00;101515.00;4966296;28;20035;-74
2022/05/17 04:47:31;;;;;;;14.95;6.10;;;;;;;11.47;100.00;101522.19;4964349;28;20035;-75
2022/05/17 04:49:56;;;;;;;12.13;5.83;;;;;;;11.45;100.00;101518.81;4966650;28;20061;-74
2022/05/17 04:52:23;;;;;;;13.07;6.30;;;;;;;11.53;100.00;101518.06;4969958;28;20109;-75
2022/05/17 04:54:50;;;;;;;21.05;7.75;;;;;;;11.52;100.00;101514.56;4970257;28;20038;-74
2022/05/17 04:57:15;;;;;;;13.23;7.30;;;;;;;11.56;100.00;101520.44;4952687;28;20038;-75
2022/05/17 04:59:41;;;;;;;10.57;7.00;;;;;;;11.57;100.00;101527.47;4936025;28;20035;-74
2022/05/17 05:02:06;;;;;;;13.02;7.15;;;;;;;11.57;100.00;101522.97;4948837;28;20027;-75
2022/05/17 05:04:32;;;;;;;16.20;6.97;;;;;;;11.64;100.00;101527.72;4948668;28;20049;-74
2022/05/17 05:06:57;;;;;;;11.87;6.27;;;;;;;11.60;100.00;101522.66;4952337;28;20416;-74
2022/05/17 05:09:24;;;;;;;;;;;;;;;11.71;100.00;101528.81;4969977;28;20039;-74
2022/05/17 05:11:49;;;;;;;;;;;;;;;11.69;100.00;101530.78;4969448;28;19989;-75
2022/05/17 05:14:14;;;;;;;12.20;6.73;;;;;;;11.78;100.00;101533.38;4952045;28;19925;-75
2022/05/17 05:16:40;;;;;;;13.67;6.17;;;;;;;11.88;100.00;101529.84;4969449;28;20038;-75
2022/05/17 05:19:05;;;;;;;16.47;7.23;;;;;;;11.95;100.00;101530.91;4951810;28;20030;-74
2022/05/17 05:21:31;;;;;;;12.40;7.73;;;;;;;12.04;100.00;101530.84;4935784;28;20481;-74
2022/05/17 05:23:56;;;;;;;12.45;7.13;;;;;;;12.13;100.00;101541.63;4969250;28;20502;-75
2022/05/17 05:26:21;;;;;;;13.33;6.43;;;;;;;12.14;100.00;101538.78;4944854;28;20070;-74
2022/05/17 05:28:47;;;;;;;14.30;7.43;;;;;;;12.23;100.00;101535.19;4951411;28;20058;-75
2022/05/17 05:31:15;;;;;;;15.67;6.67;;;;;;;12.28;100.00;101537.41;4932830;29;20031;-74
2022/05/17 05:33:41;;;;;;;14.98;6.95;;;;;;;12.28;100.00;101539.25;4934980;28;20043;-75
2022/05/17 05:36:07;;;;;;;19.17;6.50;;;;;;;12.30;100.00;101538.09;4934580;29;20476;-75
2022/05/17 05:38:33;;;;;;;10.60;6.15;;;;;;;12.41;100.00;101537.84;4957194;28;20045;-74
2022/05/17 05:40:58;;;;;;;14.98;6.45;;;;;;;12.41;100.00;101526.31;4968167;28;20030;-74
2022/05/17 05:43:25;;;;;;;11.73;5.75;;;;;;;12.45;100.00;101536.56;4969502;28;20062;-74
2022/05/17 05:45:51;;;;;;;11.57;6.72;;;;;;;12.57;100.00;101531.78;4952006;28;20978;-74
2022/05/17 05:48:16;;;;;;;9.80;6.20;;;;;;;12.65;100.00;101525.63;4951678;28;20038;-74
2022/05/17 05:50:42;;;;;;;18.73;5.30;;;;;;;12.65;100.00;101523.78;4951442;28;20051;-74
2022/05/17 05:53:10;;;;;;;12.17;5.63;;;;;;;12.82;100.00;101519.38;4967681;28;20294;-75
2022/05/17 05:55:37;;;;;;;10.98;6.15;;;;;;;12.95;100.00;101521.63;4951746;28;20296;-74
2022/05/17 05:58:06;;;;;;;10.27;5.45;;;;;;;13.11;100.00;101518.22;4944528;28;20034;-74
2022/05/17 06:00:33;;;;;;;14.75;6.07;;;;;;;13.27;100.00;101518.31;4968391;28;20377;-74
2022/05/17 06:02:58;;;;;;;10.80;6.07;;;;;;;13.42;100.00;101515.84;4950232;28;20031;-74
2022/05/17 06:05:25;;;;;;;12.63;5.50;;;;;;;13.52;100.00;101511.16;4969045;28;20038;-73
2022/05/17 06:07:50;;;;;;;10.00;4.85;;;;;;;13.62;100.00;101518.25;4943059;28;20043;-75
2022/05/17 06:10:17;;;;;;;15.37;6.67;;;;;;;13.73;100.00;101515.25;4967353;28;20046;-75
2022/05/17 06:12:43;;;;;;;9.23;3.70;;;;;;;13.63;100.00;101514.56;4950774;28;20030;-74
2022/05/17 06:15:09;;;;;;;9.30;4.60;;;;;;;13.81;100.00;101514.41;4968699;28;20078;-74
2022/05/17 06:17:36;;;;;;;8.95;4.15;;;;;;;13.71;100.00;101514.56;4951520;28;20039;-75
2022/05/17 06:20:03;;;;;;;9.40;4.45;;;;;;;13.75;100.00;101501.69;4920004;28;20030;-74
2022/05/17 06:22:28;;;;;;;9.40;4.75;;;;;;;13.70;100.00;101508.38;4950708;28;20098;-74
2022/05/17 06:24:54;;;;;;;16.50;4.60;;;;;;;13.51;100.00;101495.25;4968629;28;20507;-74
2022/05/17 06:27:19;;;;;;;12.40;4.03;;;;;;;13.67;100.00;101497.13;4950777;28;20038;-74
2022/05/17 06:29:45;;;;;;;9.70;3.90;;;;;;;13.56;100.00;101500.13;4968207;28;20026;-75
2022/05/17 06:32:12;;;;;;;7.83;4.30;;;;;;;13.71;100.00;101509.22;4968046;28;20022;-75
2022/05/17 06:34:39;;;;;;;6.80;3.80;;;;;;;13.72;100.00;101505.53;4950419;28;20031;-75
2022/05/17 06:37:06;;;;;;;10.77;4.13;;;;;;;13.80;100.00;101526.19;4967729;28;20030;-74
2022/05/17 06:39:32;;;;;;;6.65;3.95;;;;;;;13.79;100.00;101528.03;4950903;28;20023;-74
2022/05/17 06:41:57;;;;;;;11.40;3.70;;;;;;;13.79;100.00;101527.16;4967919;28;20038;-74
2022/05/17 06:44:24;;;;;;;8.98;4.10;;;;;;;13.88;100.00;101534.22;4935484;28;20035;-74
2022/05/17 06:46:49;;;;;;;10.18;4.10;;;;;;;13.96;100.00;101538.78;4966906;28;20043;-75
2022/05/17 06:49:15;;;;;;;5.67;3.67;;;;;;;13.96;100.00;101531.56;4950894;28;20726;-74
2022/05/17 06:51:41;;;;;;;8.70;3.50;;;;;;;13.89;100.00;101534.06;4934712;28;20488;-75
2022/05/17 06:54:09;;;;;;;10.20;3.95;;;;;;;14.02;100.00;101532.75;4946731;28;20031;-74
2022/05/17 06:56:35;;;;;;;6.82;3.25;;;;;;;14.10;100.00;101530.09;4964565;28;20109;-75
2022/05/17 06:59:01;;;;;;;6.55;3.42;;;;;;;14.32;100.00;101545.53;4967785;28;20734;-75
2022/05/17 07:01:27;;;;;;;10.98;3.42;;;;;;;14.65;100.00;101537.47;4949960;28;20126;-75
2022/05/17 07:03:53;;;;;;;10.90;3.50;;;;;;;14.98;100.00;101534.72;4950382;28;20563;-75
2022/05/17 07:06:19;;;;;;;4.68;3.50;;;;;;;15.28;100.00;101532.28;4967544;28;20048;-74
2022/05/17 07:08:45;;;;;;;7.72;3.17;;;;;;;15.56;100.00;101530.78;4934302;28;20439;-75
2022/05/17 07:13:54;;;;;;;9.52;3.60;;;;;;;15.66;100.00;101489.34;4949938;28;20285;-72
2022/05/17 07:16:21;;;;;;;6.28;3.08;;;;;;;15.89;100.00;101501.00;4967706;28;20081;-72
2022/05/17 07:18:47;;;;;;;10.38;3.15;;;;;;;16.08;100.00;101493.47;4950025;28;20041;-72
2022/05/17 07:21:13;;;;;;;;;;;;;;;16.28;100.00;101485.75;4949899;28;20480;-72
2022/05/17 07:23:39;;;;;;;;;;;;;;;16.40;100.00;101482.41;4943610;28;19925;-73
2022/05/17 07:26:04;;;;;;;7.65;3.00;;;;;;;16.28;100.00;101473.09;4966480;28;19929;-72
2022/05/17 07:28:31;;;;;;;6.30;3.35;;;;;;;16.37;100.00;101488.19;4943452;28;20624;-72
2022/05/17 07:30:57;;;;;;;12.07;4.28;;;;;;;16.24;100.00;101478.00;4966080;28;20050;-72
2022/05/17 07:33:24;;;;;;;8.90;3.13;;;;;;;15.75;100.00;101477.56;4967239;28;20039;-72
2022/05/17 07:35:50;;;;;;;9.33;3.77;;;;;;;16.23;100.00;101521.31;4949190;28;20031;-72
2022/05/17 07:38:16;;;;;;;8.05;3.78;;;;;;;16.31;100.00;101505.06;4948749;28;20046;-72
2022/05/17 07:40:42;;;;;;;12.77;3.47;;;;;;;16.42;100.00;101503.81;4967210;28;20034;-72
2022/05/17 07:43:08;;;;;;;6.68;3.20;;;;;;;16.35;100.00;101503.69;4948173;28;20046;-72
2022/05/17 07:45:34;;;;;;;12.52;3.95;;;;;;;16.11;100.00;101515.50;4948539;28;20031;-72
2022/05/17 07:48:01;;;;;;;7.75;3.15;;;;;;;16.38;100.00;101519.47;4965708;28;20036;-72
2022/05/17 07:50:27;;;;;;;6.28;3.35;;;;;;;16.50;100.00;101514.50;4949886;28;20048;-73
2022/05/17 07:52:52;;;;;;;5.53;2.97;;;;;;;16.63;100.00;101505.78;4966722;28;20089;-72
2022/05/17 07:55:18;;;;;;;8.73;3.23;;;;;;;16.69;100.00;101507.72;4950000;28;20042;-72
2022/05/17 07:57:44;;;;;;;6.65;3.40;;;;;;;16.67;100.00;101523.28;4967139;28;20053;-72
2022/05/17 08:00:10;;;;;;;14.10;3.53;;;;;;;16.73;100.00;101511.75;4949522;28;20022;-72
2022/05/17 08:02:39;;;;;;;9.18;3.47;;;;;;;16.82;100.00;101501.75;4966411;28;20141;-72
2022/05/17 08:05:06;;;;;;;8.75;3.72;;;;;;;16.74;100.00;101493.69;4949816;28;20061;-72
2022/05/17 08:07:32;;;;;;;9.65;4.32;;;;;;;16.80;100.00;101464.16;4949661;28;20701;-72
2022/05/17 08:09:57;;;;;;;9.77;3.60;;;;;;;17.29;100.00;101479.75;4949531;28;20046;-73
2022/05/17 08:12:22;;;;;;;8.10;3.80;;;;;;;16.90;100.00;101446.88;4966547;28;20126;-71
2022/05/17 08:14:48;;;;;;;7.33;2.93;;;;;;;16.84;100.00;101422.34;4967029;28;20062;-72
2022/05/17 08:17:14;;;;;;;7.30;2.77;;;;;;;16.83;100.00;101439.53;4949835;28;20061;-72
2022/05/17 08:19:40;;;;;;;11.73;3.25;;;;;;;17.29;100.00;101473.53;4966853;28;20109;-72
2022/05/17 08:22:12;;;;;;;10.02;3.83;;;;;;;17.41;100.00;101479.28;4949268;28;20118;-72
2022/05/17 08:27:31;;;;;;;5.53;2.80;;;;;;;17.55;100.00;101500.00;4966287;28;20038;-72
2022/05/17 08:30:01;;;;;;;6.45;2.83;;;;;;;17.59;100.00;101503.97;4952338;28;20033;-72
2022/05/17 08:35:11;;;;;;;8.38;3.40;;;;;;;17.64;100.00;101488.03;4957678;28;20047;-72
2022/05/17 08:37:36;;;;;;;8.17;3.10;;;;;;;17.24;100.00;101417.41;4952580;28;20027;-73
2022/05/17 08:40:01;;;;;;;6.13;2.80;;;;;;;17.27;100.00;101462.91;4937114;28;20523;-72
2022/05/17 08:42:46;;;;;;;6.10;3.10;;;;;;;17.28;100.00;101529.38;4970214;28;20035;-72
2022/05/17 08:45:16;;;;;;;7.90;3.35;;;;;;;17.30;100.00;101524.63;4958655;28;20035;-72
2022/05/17 08:47:50;;;;;;;5.65;3.25;;;;;;;17.32;100.00;101526.28;4952323;28;20039;-72
2022/05/17 08:50:22;;;;;;;5.35;2.63;;;;;;;17.28;100.00;101510.47;4949468;29;20461;-72
2022/05/17 08:52:48;;;;;;;6.93;3.45;;;;;;;17.40;100.00;101537.81;4952433;28;20109;-73
2022/05/17 08:55:36;;;;;;;5.73;3.30;;;;;;;17.42;100.00;101537.59;4970198;28;20046;-72
2022/05/17 08:58:08;;;;;;;7.45;4.10;;;;;;;17.64;100.00;101514.22;4952679;28;20023;-73
2022/05/17 09:00:41;;;;;;;7.25;3.15;;;;;;;17.26;100.00;101476.59;4936534;28;20566;-73
2022/05/17 09:03:32;;;;;;;9.00;3.40;;;;;;;17.56;100.00;101511.63;4949337;29;20483;-73
2022/05/17 09:06:01;;;;;;;9.38;3.75;;;;;;;17.47;100.00;101548.72;4968061;28;20105;-74
2022/05/17 09:08:31;;;;;;;9.10;4.38;;;;;;;17.66;100.00;101585.06;4949754;28;20496;-73
2022/05/17 09:11:11;;;;;;;5.55;3.20;;;;;;;17.83;100.00;101554.13;4951494;28;20032;-73
2022/05/17 09:14:04;;;;;;;6.47;3.20;;;;;;;18.00;100.00;101545.78;4961574;28;20058;-74
2022/05/17 09:16:35;;;;;;;9.70;4.55;;;;;;;18.35;100.00;101547.59;4952624;28;20049;-74
2022/05/17 09:19:00;;;;;;;9.40;3.78;;;;;;;18.50;100.00;101506.97;4969360;28;20046;-73
2022/05/17 09:21:30;;;;;;;5.60;3.00;;;;;;;18.77;100.00;101540.44;4969398;28;20097;-73
2022/05/17 09:24:04;;;;;;;7.15;3.17;;;;;;;19.02;100.00;101517.53;4936290;28;20054;-72
2022/05/17 09:26:30;;;;;;;7.35;3.28;;;;;;;19.13;100.00;101409.53;4969683;28;20031;-73
2022/05/17 09:29:01;;;;;;;6.45;3.15;;;;;;;19.29;100.00;101381.28;4969362;28;20035;-73
2022/05/17 09:31:32;;;;;;;4.45;2.45;;;;;;;19.30;100.00;101431.66;4968987;28;20042;-72
2022/05/17 09:34:00;;;;;;;9.90;3.85;;;;;;;18.76;95.15;101314.28;4969482;28;20451;-72
2022/05/17 09:36:32;;;;;;;7.75;3.70;;;;;;;18.47;96.58;101326.22;4950989;28;20029;-73
2022/05/17 09:38:59;;;;;;;5.85;3.03;;;;;;;18.51;99.36;101389.66;4935871;28;20121;-72
2022/05/17 09:41:29;;;;;;;4.32;2.90;;;;;;;19.16;95.73;101403.72;4951587;28;20427;-72
2022/05/17 09:44:02;;;;;;;4.97;2.67;;;;;;;19.72;85.97;101280.72;4951346;28;20043;-71
2022/05/17 09:46:41;;;;;;;4.85;2.75;;;;;;;21.03;84.52;101388.19;4936002;28;20038;-75
2022/05/17 09:52:45;;;;;;;9.05;3.03;;;;;;;21.53;74.98;101288.88;4957337;28;20117;-73
2022/05/17 09:55:24;;;;;;;5.40;4.05;;;;;;;20.49;75.25;101202.28;4962962;28;20541;-73
2022/05/17 09:58:11;;;;;;;7.45;3.55;;;;;;;20.13;80.59;101300.44;4966725;28;20042;-73
2022/05/17 10:00:43;;;;;;;8.77;3.42;;;;;;;20.73;73.78;101218.88;4951930;28;20039;-75
2022/05/17 10:03:14;;;;;;;6.95;3.15;;;;;;;22.33;69.17;101270.72;4944496;28;20121;-74
2022/05/17 10:05:46;;;;;;;5.72;3.05;;;;;;;21.18;66.48;101047.69;4935510;28;20053;-73
2022/05/17 10:08:14;;;;;;;6.07;2.65;;;;;;;21.30;70.71;101268.56;4951529;28;20134;-73
2022/05/17 10:10:43;;;;;;;7.72;2.50;;;;;;;22.22;71.86;101353.09;4968527;28;20039;-73
2022/05/17 10:13:08;;;;;;;7.32;2.58;;;;;;;20.07;70.36;101108.88;4951317;28;20142;-73
2022/05/17 10:15:38;;;;;;;6.37;3.00;;;;;;;19.80;80.68;101353.63;4937626;29;20535;-73
2022/05/17 10:18:19;;;;;;;10.40;3.58;;;;;;;19.65;77.89;101279.03;4960714;28;20058;-73
2022/05/17 10:20:50;;;;;;;12.18;4.13;;;;;;;19.46;81.31;101343.81;4951327;28;20051;-73
2022/05/17 10:23:39;;;;;;;8.15;3.45;;;;;;;20.06;75.99;101297.72;4951143;28;20377;-75
2022/05/17 10:26:16;;;;;;;6.47;2.60;;;;;;;19.78;76.63;101298.84;4928317;28;20393;-75
2022/05/17 10:28:49;;;;;;;4.93;3.00;;;;;;;19.78;77.30;101315.09;4944067;28;20629;-76
2022/05/17 10:31:31;;;;;;;4.78;2.85;;;;;;;19.76;75.10;101265.72;4951106;28;20034;-75
2022/05/17 10:34:13;;;;;;;5.57;2.83;;;;;;;20.55;72.63;101303.63;4968385;28;20033;-73
2022/05/17 10:36:44;;;;;;;4.85;2.58;;;;;;;20.24;70.80;101213.84;4968395;28;20054;-73
2022/05/17 10:39:39;;;;;;;5.88;2.78;;;;;;;19.78;74.96;101292.56;4968321;28;20101;-73
2022/05/17 10:42:05;;;;;;;5.60;2.70;;;;;;;20.82;74.83;101389.34;4953365;28;20041;-75
2022/05/17 10:44:45;;;;;;;8.50;2.90;;;;;;;20.85;70.84;101282.22;4968208;28;20027;-73
2022/05/17 10:47:21;;;;;;;7.55;2.97;;;;;;;21.41;67.69;101278.75;4961786;28;20041;-73
2022/05/17 10:50:04;;;;;;;4.63;2.55;;;;;;;21.11;66.42;101207.09;4950526;28;20523;-73
2022/05/17 10:52:42;;;;;;;6.85;2.47;;;;;;;20.76;67.46;101175.00;4967738;28;20069;-73
2022/05/17 10:55:17;;;;;;;5.93;2.92;;;;;;;20.54;73.06;101329.94;4953319;28;20109;-73
2022/05/17 10:57:42;;;;;;;8.20;3.15;;;;;;;21.23;69.36;101312.03;4949568;28;20412;-73
2022/05/17 11:00:18;;;;;;;4.70;2.97;;;;;;;21.24;69.42;101312.91;4966366;28;20019;-74
2022/05/17 11:03:10;;;;;;;7.05;2.13;;;;;;;21.82;70.11;101407.81;4949867;28;20035;-73
2022/05/17 11:06:00;;;;;;;7.28;3.72;;;;;;;21.48;73.48;101422.66;4967579;28;20046;-73
2022/05/17 11:08:45;;;;;;;8.38;3.17;;;;;;;20.47;75.88;101339.97;4950406;28;20042;-73
2022/05/17 11:11:22;;;;;;;9.00;4.57;;;;;;;20.37;82.24;101459.75;4950290;28;20126;-73
2022/05/17 11:13:53;;;;;;;5.00;3.50;;;;;;;20.69;84.64;101505.22;4967772;28;20114;-73
2022/05/17 11:16:40;;;;;;;7.93;3.53;;;;;;;21.33;78.85;101452.81;4967708;28;20157;-73
2022/05/17 11:19:14;;;;;;;8.70;3.55;;;;;;;20.79;76.53;101346.34;4932810;29;20497;-74
2022/05/17 11:21:49;;;;;;;10.57;4.07;;;;;;;20.98;79.22;101427.91;4949249;28;20500;-73
2022/05/17 11:24:44;;;;;;;6.55;3.42;;;;;;;20.27;79.24;101350.03;4961777;28;20513;-73
2022/05/17 11:27:28;;;;;;;7.97;3.38;;;;;;;20.55;80.88;101418.38;4950273;28;20459;-74
2022/05/17 11:30:26;;;;;;;9.32;4.05;;;;;;;19.86;84.94;101435.97;4967428;28;20619;-73
2022/05/17 11:33:30;;;;;;;5.97;3.65;;;;;;;19.13;85.16;101376.22;4950004;28;20031;-75
2022/05/17 11:36:00;;;;;;;6.65;3.20;;;;;;;19.05;86.97;101411.59;4967575;28;20038;-75
2022/05/17 11:38:31;;;;;;;6.10;3.47;;;;;;;19.57;84.23;101421.75;4967200;28;20046;-75